createdAt,value
2023-01-09T00:02:12.191Z,0.73
2023-01-09T00:08:17.609Z,0.70
2023-01-09T00:11:19.381Z,0.70
2023-01-09T00:14:22.211Z,0.57
2023-01-09T00:17:23.745Z,0.50
2023-01-09T00:23:27.194Z,0.40
2023-01-09T00:26:29.261Z,0.75
2023-01-09T00:29:31.867Z,0.40
2023-01-09T00:32:33.441Z,0.50
2023-01-09T00:38:37.596Z,0.55
2023-01-09T00:41:41.179Z,0.60
2023-01-09T00:44:48.455Z,0.60
2023-01-09T00:47:51.735Z,0.50
2023-01-09T00:50:55.467Z,0.60
2023-01-09T00:53:57.682Z,1.00
2023-01-09T00:56:59.413Z,0.55
2023-01-09T01:00:01.480Z,0.57
2023-01-09T01:03:03.198Z,0.95
2023-01-09T01:06:19.507Z,0.73
2023-01-09T01:09:21.510Z,0.80
2023-01-09T01:12:22.984Z,0.50
2023-01-09T01:15:28.519Z,0.50
2023-01-09T01:18:30.027Z,0.60
2023-01-09T01:24:33.383Z,0.30
2023-01-09T01:27:34.798Z,0.50
2023-01-09T01:30:37.813Z,0.28
2023-01-09T01:33:39.422Z,0.30
2023-01-09T01:39:42.889Z,0.15
2023-01-09T01:42:46.660Z,0.20
2023-01-09T01:45:48.112Z,0.28
2023-01-09T01:48:54.404Z,0.20
2023-01-09T01:51:55.835Z,0.20
2023-01-09T01:54:57.962Z,0.03
2023-01-09T01:58:05.176Z,0.28
2023-01-09T02:01:07.411Z,0.20
2023-01-09T02:04:09.610Z,0.35
2023-01-09T02:07:11.397Z,0.30
2023-01-09T02:10:14.915Z,0.20
2023-01-09T02:13:16.761Z,0.10
2023-01-09T02:16:33.045Z,0.20
2023-01-09T02:20:11.217Z,0.45
2023-01-09T02:23:40.421Z,0.20
2023-01-09T02:26:59.927Z,0.30
2023-01-09T02:30:21.898Z,0.30
2023-01-09T02:33:35.252Z,0.20
2023-01-09T02:36:47.233Z,0.30
2023-01-09T02:39:54.809Z,0.25
2023-01-09T02:42:58.282Z,0.30
2023-01-09T02:46:00.319Z,0.30
2023-01-09T02:49:01.858Z,0.35
2023-01-09T02:55:24.620Z,0.30
2023-01-09T02:58:39.542Z,0.30
2023-01-09T03:01:51.387Z,0.30
2023-01-09T03:05:01.247Z,0.20
2023-01-09T03:08:06.396Z,0.30
2023-01-09T03:11:08.529Z,0.30
2023-01-09T03:14:14.996Z,0.30
2023-01-09T03:17:25.209Z,0.32
2023-01-09T03:20:27.195Z,0.20
2023-01-09T03:23:45.492Z,0.38
2023-01-09T03:26:47.215Z,0.20
2023-01-09T03:29:48.752Z,0.38
2023-01-09T03:35:52.009Z,0.28
2023-01-09T03:38:53.620Z,0.40
2023-01-09T03:44:56.266Z,0.35
2023-01-09T03:47:58.651Z,0.35
2023-01-09T03:51:00.140Z,0.30
2023-01-09T03:54:01.633Z,0.32
2023-01-09T03:57:03.114Z,0.30
2023-01-09T04:03:15.047Z,0.20
2023-01-09T04:06:16.500Z,0.43
2023-01-09T04:09:18.058Z,0.22
